Northern Expedition — CFN5364 — position and weather

sailwx.info

Track history (hours):
 
Tides and Currents Weather Stations Pressure Air Temp Water Temp Dewpoint Dewpoint Depression Visibility Wind Speed Wind Dir Waves Ship Positions

Northern Expedition

Last reported at 2015-Mar-29 03:25 UTC. Time now 2015-Mar-29 17:19 UTC.
Position N 51°13' W 127°51'.

Length 151 m; draft 5 m.

Type: Ship. MMSI: 316014054.

Date/timePositionNaut miles runAvg speedWind from/ knotsBaromVisibWave heightAir tempDewpointWater temp
2015-Mar-29 03:25N 51°13' W 127°51'1516.9
2015-Mar-29 02:33N 50°58' W 127°45'1615.5
2015-Mar-29 01:33N 50°48' W 127°26'5 0.8
2015-Mar-28 19:27N 50°44' W 127°27'0 0.0
2015-Mar-28 18:29N 50°44' W 127°27'0 0.0
2015-Mar-28 17:33N 50°44' W 127°27'0 0.0
2015-Mar-28 16:33N 50°44' W 127°27'0 0.2
2015-Mar-28 15:31N 50°44' W 127°28'1111.7
2015-Mar-28 14:33N 50°53' W 127°37'1615.4
2015-Mar-28 13:33N 51°06' W 127°51'1514.6
2015-Mar-28 12:30N 51°21' W 127°52'  
2015-Mar-22 04:18N 51°27' W 127°51'1514.7
2015-Mar-22 03:18N 51°12' W 127°51'1115.0
2015-Mar-22 02:34N 51°01' W 127°46'1514.8
2015-Mar-22 01:33N 50°48' W 127°35'7 6.5
2015-Mar-22 00:30N 50°44' W 127°27'0 0.0
2015-Mar-21 23:32N 50°44' W 127°27'0 0.0
2015-Mar-21 20:27N 50°44' W 127°27'0 0.0
2015-Mar-21 19:33N 50°44' W 127°27'0 0.0
2015-Mar-21 18:33N 50°44' W 127°27'0 0.0
2015-Mar-21 17:33N 50°44' W 127°27'0 0.0
2015-Mar-21 16:14N 50°44' W 127°27'2 2.7
2015-Mar-21 15:33N 50°45' W 127°28'1212.1
2015-Mar-21 14:34N 50°55' W 127°40'1313.5
2015-Mar-21 13:33N 51°07' W 127°49'1413.6
2015-Mar-21 12:33N 51°20' W 127°52'  
Track history (hours):
 
Tides and Currents Weather Stations Pressure Air Temp Water Temp Dewpoint Dewpoint Depression Visibility Wind Speed Wind Dir Waves Ship Positions

Northern Expedition

Last reported at 2015-Mar-29 03:25 UTC. Time now 2015-Mar-29 17:19 UTC.
Position N 51°13' W 127°51'.

Length 151 m; draft 5 m.

Type: Ship. MMSI: 316014054.

Date/timePositionNaut miles runAvg speedWind from/ knotsBaromVisibWave heightAir tempDewpointWater temp
2015-Mar-29 03:25N 51°13' W 127°51'1516.9
2015-Mar-29 02:33N 50°58' W 127°45'1615.5
2015-Mar-29 01:33N 50°48' W 127°26'5 0.8
2015-Mar-28 19:27N 50°44' W 127°27'0 0.0
2015-Mar-28 18:29N 50°44' W 127°27'0 0.0
2015-Mar-28 17:33N 50°44' W 127°27'0 0.0
2015-Mar-28 16:33N 50°44' W 127°27'0 0.2
2015-Mar-28 15:31N 50°44' W 127°28'1111.7
2015-Mar-28 14:33N 50°53' W 127°37'1615.4
2015-Mar-28 13:33N 51°06' W 127°51'1514.6
2015-Mar-28 12:30N 51°21' W 127°52'  
2015-Mar-22 04:18N 51°27' W 127°51'1514.7
2015-Mar-22 03:18N 51°12' W 127°51'1115.0
2015-Mar-22 02:34N 51°01' W 127°46'1514.8
2015-Mar-22 01:33N 50°48' W 127°35'7 6.5
2015-Mar-22 00:30N 50°44' W 127°27'0 0.0
2015-Mar-21 23:32N 50°44' W 127°27'0 0.0
2015-Mar-21 20:27N 50°44' W 127°27'0 0.0
2015-Mar-21 19:33N 50°44' W 127°27'0 0.0
2015-Mar-21 18:33N 50°44' W 127°27'0 0.0
2015-Mar-21 17:33N 50°44' W 127°27'0 0.0
2015-Mar-21 16:14N 50°44' W 127°27'2 2.7
2015-Mar-21 15:33N 50°45' W 127°28'1212.1
2015-Mar-21 14:34N 50°55' W 127°40'1313.5
2015-Mar-21 13:33N 51°07' W 127°49'1413.6
2015-Mar-21 12:33N 51°20' W 127°52'  

Dump ship's entire track history